Time;durP1;ratioP1;P1;durP2;ratioP2;P2;SDS_P1;SDS_P2;PMS_P1;PMS_P2;Temp;Humidity;BMP_temperature;BMP_pressure;BME280_temperature;BME280_humidity;BME280_pressure;Samples;Min_cycle;Max_cycle;Signal;HPM_P1;HPM_P2
2022/06/24 00:01:40;;;;;;;8.18;5.15;;;;;;;;;;4990975;28;20713;-53
2022/06/24 00:04:06;;;;;;;7.23;4.80;;;;;;;;;;4978680;28;20194;-53
2022/06/24 00:06:45;;;;;;;9.18;4.90;;;;;;;;;;4992055;28;20232;-52
2022/06/24 00:09:11;;;;;;;7.20;5.25;;;;;;;;;;4988037;28;20194;-52
2022/06/24 00:11:37;;;;;;;9.30;5.22;;;;;;;;;;4996979;28;20190;-52
2022/06/24 00:14:13;;;;;;;9.18;5.47;;;;;;;;;;4989117;28;20705;-54
2022/06/24 00:16:54;;;;;;;7.00;5.18;;;;;;;;;;4986972;28;20279;-53
2022/06/24 00:19:20;;;;;;;8.50;5.00;;;;;;;;;;4985963;28;20691;-53
2022/06/24 00:22:05;;;;;;;5.97;5.27;;;;;;;;;;4988980;28;20301;-54
2022/06/24 00:24:32;;;;;;;6.28;5.05;;;;;;;;;;4992113;28;20721;-52
2022/06/24 00:26:58;;;;;;;5.80;4.95;;;;;;;;;;4985639;28;20210;-54
2022/06/24 00:29:28;;;;;;;8.55;4.90;;;;;;;;;;4985801;28;20477;-51
2022/06/24 00:32:04;;;;;;;8.60;4.85;;;;;;;;;;4991106;28;20195;-52
2022/06/24 00:34:30;;;;;;;8.27;5.03;;;;;;;;;;4992656;28;20664;-52
2022/06/24 00:36:56;;;;;;;9.27;5.68;;;;;;;;;;4995081;28;20621;-54
2022/06/24 00:39:31;;;;;;;7.95;5.10;;;;;;;;;;4987948;28;20599;-56
2022/06/24 00:41:57;;;;;;;14.50;6.35;;;;;;;;;;4992256;28;20186;-52
2022/06/24 00:44:23;;;;;;;12.55;5.80;;;;;;;;;;4992582;28;20190;-54
2022/06/24 00:46:49;;;;;;;10.00;5.90;;;;;;;;;;4989318;28;20237;-54
2022/06/24 00:49:14;;;;;;;12.98;6.53;;;;;;;;;;4987487;28;20269;-53
2022/06/24 00:51:41;;;;;;;12.57;6.07;;;;;;;;;;4987176;28;20186;-53
2022/06/24 00:54:11;;;;;;;10.45;4.95;;;;;;;;;;4989185;28;20709;-52
2022/06/24 00:56:37;;;;;;;8.83;5.70;;;;;;;;;;4965816;28;20744;-53
2022/06/24 00:59:03;;;;;;;10.63;6.00;;;;;;;;;;4971603;28;20201;-53
2022/06/24 01:01:39;;;;;;;9.73;5.30;;;;;;;;;;4984289;28;20720;-53
2022/06/24 01:04:09;;;;;;;9.53;5.53;;;;;;;;;;4985793;28;20568;-53
2022/06/24 01:06:36;;;;;;;10.77;5.67;;;;;;;;;;4986910;28;20649;-54
2022/06/24 01:09:02;;;;;;;10.37;5.93;;;;;;;;;;4986583;28;20647;-53
2022/06/24 01:11:29;;;;;;;10.93;5.67;;;;;;;;;;4987914;28;20277;-54
2022/06/24 01:13:55;;;;;;;11.87;5.57;;;;;;;;;;4985997;28;20174;-55
2022/06/24 01:16:21;;;;;;;8.63;5.47;;;;;;;;;;4988569;28;20317;-54
2022/06/24 01:18:50;;;;;;;10.63;6.37;;;;;;;;;;4989792;28;20189;-54
2022/06/24 01:21:32;;;;;;;8.50;5.80;;;;;;;;;;4988630;28;20197;-54
2022/06/24 01:24:04;;;;;;;9.17;5.60;;;;;;;;;;4981364;28;20251;-52
2022/06/24 01:26:30;;;;;;;9.30;5.83;;;;;;;;;;4985927;28;20709;-55
2022/06/24 01:28:56;;;;;;;8.17;5.37;;;;;;;;;;4985315;28;20202;-52
2022/06/24 01:31:22;;;;;;;10.07;5.47;;;;;;;;;;4983897;28;20216;-52
2022/06/24 01:33:48;;;;;;;7.37;5.40;;;;;;;;;;4989708;28;20670;-52
2022/06/24 01:36:14;;;;;;;10.03;5.10;;;;;;;;;;4986754;28;20189;-54
2022/06/24 01:38:40;;;;;;;5.43;4.80;;;;;;;;;;4988968;28;20187;-53
2022/06/24 01:41:06;;;;;;;7.17;5.30;;;;;;;;;;4985629;28;20218;-54
2022/06/24 01:43:32;;;;;;;5.77;4.57;;;;;;;;;;4989551;28;20217;-55
2022/06/24 01:45:58;;;;;;;5.63;4.73;;;;;;;;;;4987700;28;20230;-53
2022/06/24 01:48:23;;;;;;;6.07;4.43;;;;;;;;;;4984895;28;20899;-52
2022/06/24 01:50:49;;;;;;;8.70;4.70;;;;;;;;;;4989824;28;20198;-54
2022/06/24 01:53:15;;;;;;;6.20;4.10;;;;;;;;;;4985656;28;20662;-53
2022/06/24 01:55:41;;;;;;;5.80;4.90;;;;;;;;;;4984341;28;20209;-53
2022/06/24 01:58:07;;;;;;;4.93;4.30;;;;;;;;;;4990130;28;20198;-53
2022/06/24 02:00:33;;;;;;;6.80;4.67;;;;;;;;;;4982226;28;20208;-53
2022/06/24 02:02:59;;;;;;;5.53;4.40;;;;;;;;;;4983273;28;20197;-53
2022/06/24 02:05:25;;;;;;;5.53;4.17;;;;;;;;;;4983550;28;20225;-53
2022/06/24 02:07:51;;;;;;;5.50;4.23;;;;;;;;;;4981956;28;20205;-52
2022/06/24 02:15:46;;;;;;;4.17;3.60;;;;;;;;;;4985769;28;20197;-53
2022/06/24 02:18:12;;;;;;;4.70;3.93;;;;;;;;;;4982726;28;20186;-52
2022/06/24 02:20:38;;;;;;;5.93;3.80;;;;;;;;;;4991852;28;20595;-53
2022/06/24 02:23:04;;;;;;;4.83;3.87;;;;;;;;;;4988950;28;20193;-53
2022/06/24 02:25:30;;;;;;;5.93;4.10;;;;;;;;;;4985255;28;20228;-53
2022/06/24 02:27:56;;;;;;;4.30;3.90;;;;;;;;;;4990201;28;20667;-52
2022/06/24 02:30:22;;;;;;;5.47;3.70;;;;;;;;;;4986522;28;21801;-52
2022/06/24 02:32:48;;;;;;;4.97;3.73;;;;;;;;;;4990581;28;20182;-53
2022/06/24 02:35:14;;;;;;;4.20;3.80;;;;;;;;;;4984968;28;20316;-53
2022/06/24 02:37:40;;;;;;;4.03;3.67;;;;;;;;;;4984372;28;20202;-52
2022/06/24 02:42:57;;;;;;;4.30;3.90;;;;;;;;;;4986112;28;20587;-52
2022/06/24 02:45:23;;;;;;;3.93;3.50;;;;;;;;;;4981193;28;20576;-52
2022/06/24 02:47:49;;;;;;;6.33;4.40;;;;;;;;;;4983966;28;20264;-52
2022/06/24 02:50:15;;;;;;;3.97;3.57;;;;;;;;;;4988203;28;20204;-53
2022/06/24 02:52:41;;;;;;;4.63;4.00;;;;;;;;;;4984643;28;20208;-51
2022/06/24 02:55:07;;;;;;;5.23;3.83;;;;;;;;;;4988952;28;20256;-51
2022/06/24 02:57:33;;;;;;;5.17;4.00;;;;;;;;;;4985837;28;20197;-52
2022/06/24 02:59:59;;;;;;;4.90;4.23;;;;;;;;;;4988719;28;20187;-52
2022/06/24 03:02:25;;;;;;;4.20;3.80;;;;;;;;;;4986195;28;20190;-54
2022/06/24 03:04:51;;;;;;;4.60;4.20;;;;;;;;;;4984607;28;20220;-54
2022/06/24 03:07:17;;;;;;;5.20;4.07;;;;;;;;;;4990232;28;20221;-52
2022/06/24 03:09:43;;;;;;;4.40;4.00;;;;;;;;;;4988805;28;20228;-53
2022/06/24 03:12:09;;;;;;;5.07;4.30;;;;;;;;;;4988127;28;20677;-51
2022/06/24 03:14:35;;;;;;;4.50;4.10;;;;;;;;;;4987905;28;20209;-51
2022/06/24 03:17:01;;;;;;;4.67;4.37;;;;;;;;;;4983062;28;20186;-52
2022/06/24 03:19:27;;;;;;;5.00;4.53;;;;;;;;;;4985128;28;20530;-52
2022/06/24 03:21:53;;;;;;;4.60;4.20;;;;;;;;;;4988400;28;20205;-51
2022/06/24 03:24:19;;;;;;;4.70;4.13;;;;;;;;;;4986314;28;20249;-52
2022/06/24 03:26:45;;;;;;;5.67;4.20;;;;;;;;;;4989326;28;20264;-51
2022/06/24 03:29:11;;;;;;;4.97;4.43;;;;;;;;;;4989615;28;20194;-51
2022/06/24 03:31:37;;;;;;;4.40;4.00;;;;;;;;;;4989915;28;20190;-52
2022/06/24 03:34:03;;;;;;;4.70;4.20;;;;;;;;;;4993358;28;20205;-51
2022/06/24 03:36:29;;;;;;;5.47;3.90;;;;;;;;;;4992049;28;20280;-52
2022/06/24 03:38:55;;;;;;;4.47;4.07;;;;;;;;;;4992635;28;20190;-52
2022/06/24 03:41:21;;;;;;;5.20;4.20;;;;;;;;;;4992093;28;20221;-53
2022/06/24 03:43:47;;;;;;;6.07;4.07;;;;;;;;;;4986290;28;20184;-51
2022/06/24 03:46:12;;;;;;;4.33;4.00;;;;;;;;;;4993292;28;20611;-51
2022/06/24 03:48:38;;;;;;;4.97;4.10;;;;;;;;;;4989102;28;20648;-52
2022/06/24 03:51:04;;;;;;;4.93;4.27;;;;;;;;;;4990533;28;20582;-52
2022/06/24 03:53:31;;;;;;;4.63;4.20;;;;;;;;;;4987199;28;20197;-51
2022/06/24 03:55:57;;;;;;;5.20;4.70;;;;;;;;;;4986205;28;20666;-51
2022/06/24 03:58:23;;;;;;;4.60;4.20;;;;;;;;;;4986940;28;20244;-51
2022/06/24 04:00:49;;;;;;;4.00;3.77;;;;;;;;;;4986291;28;21894;-53
2022/06/24 04:03:15;;;;;;;5.90;4.30;;;;;;;;;;4987225;28;20395;-51
2022/06/24 04:05:42;;;;;;;4.70;4.23;;;;;;;;;;4984552;28;20675;-52
2022/06/24 04:08:08;;;;;;;6.23;4.00;;;;;;;;;;4988994;28;20296;-53
2022/06/24 04:10:34;;;;;;;4.73;4.27;;;;;;;;;;4984867;28;20192;-51
2022/06/24 04:13:00;;;;;;;5.13;4.60;;;;;;;;;;4980136;28;20193;-51
2022/06/24 04:15:26;;;;;;;5.90;3.93;;;;;;;;;;4984803;28;20201;-53
2022/06/24 04:17:52;;;;;;;4.70;3.90;;;;;;;;;;4991466;28;20196;-51
2022/06/24 04:20:18;;;;;;;4.00;3.70;;;;;;;;;;4982168;28;20196;-53
2022/06/24 04:22:44;;;;;;;4.87;3.80;;;;;;;;;;4990392;28;20190;-53
2022/06/24 04:25:10;;;;;;;5.93;4.30;;;;;;;;;;4989307;28;20194;-53
2022/06/24 04:27:36;;;;;;;4.33;3.87;;;;;;;;;;4988163;28;20212;-52
2022/06/24 04:30:03;;;;;;;5.47;4.20;;;;;;;;;;4973849;28;20197;-52
2022/06/24 04:32:28;;;;;;;4.80;4.20;;;;;;;;;;4972362;28;20182;-53
2022/06/24 04:34:54;;;;;;;8.77;5.33;;;;;;;;;;4984302;28;20573;-52
2022/06/24 04:37:20;;;;;;;5.47;4.97;;;;;;;;;;4979975;28;20236;-52
2022/06/24 04:39:46;;;;;;;5.83;5.17;;;;;;;;;;4979989;28;20730;-52
2022/06/24 04:42:12;;;;;;;7.17;5.30;;;;;;;;;;4980438;28;20186;-52
2022/06/24 04:44:38;;;;;;;9.80;6.00;;;;;;;;;;4971238;28;20606;-53
2022/06/24 04:47:04;;;;;;;6.57;5.13;;;;;;;;;;4971547;28;20779;-53
2022/06/24 04:49:30;;;;;;;9.47;5.33;;;;;;;;;;4963213;28;20272;-52
2022/06/24 04:51:56;;;;;;;8.27;5.27;;;;;;;;;;4986403;28;20201;-54
2022/06/24 04:54:22;;;;;;;5.57;5.07;;;;;;;;;;4979859;28;20229;-57
2022/06/24 04:56:48;;;;;;;8.20;5.43;;;;;;;;;;4983080;28;20192;-56
2022/06/24 04:59:14;;;;;;;8.40;5.47;;;;;;;;;;4976076;28;20193;-57
2022/06/24 05:01:40;;;;;;;5.97;4.97;;;;;;;;;;4976603;28;21539;-55
2022/06/24 05:04:06;;;;;;;6.10;5.30;;;;;;;;;;4980581;28;20327;-54
2022/06/24 05:06:32;;;;;;;6.73;5.27;;;;;;;;;;4969856;28;20698;-55
2022/06/24 05:08:58;;;;;;;5.87;4.90;;;;;;;;;;4974196;28;20319;-54
2022/06/24 05:11:24;;;;;;;7.47;5.20;;;;;;;;;;4965135;28;20627;-55
2022/06/24 05:13:51;;;;;;;5.43;4.87;;;;;;;;;;4959977;28;20245;-56
2022/06/24 05:16:16;;;;;;;8.63;5.40;;;;;;;;;;4963185;28;20181;-60
2022/06/24 05:18:42;;;;;;;6.80;5.37;;;;;;;;;;4976189;28;20212;-56
2022/06/24 05:21:09;;;;;;;9.30;5.20;;;;;;;;;;4983521;28;20655;-55
2022/06/24 05:23:35;;;;;;;9.47;4.90;;;;;;;;;;4984802;28;20312;-56
2022/06/24 05:26:00;;;;;;;23.63;6.20;;;;;;;;;;4991143;28;20254;-56
2022/06/24 05:28:26;;;;;;;15.53;5.97;;;;;;;;;;4981843;28;20225;-55
2022/06/24 05:30:59;;;;;;;7.47;5.03;;;;;;;;;;4989602;28;20738;-55
2022/06/24 05:33:25;;;;;;;10.17;5.47;;;;;;;;;;4982407;28;20202;-55
2022/06/24 05:35:52;;;;;;;9.30;5.13;;;;;;;;;;4983709;28;20186;-54
2022/06/24 05:38:21;;;;;;;10.37;4.97;;;;;;;;;;4979267;28;20293;-55
2022/06/24 05:40:47;;;;;;;5.93;4.70;;;;;;;;;;4985520;28;20177;-54
2022/06/24 05:43:13;;;;;;;8.03;4.57;;;;;;;;;;4982364;28;20283;-54
2022/06/24 05:45:39;;;;;;;5.30;4.90;;;;;;;;;;4987172;28;20233;-56
2022/06/24 05:48:05;;;;;;;6.83;4.60;;;;;;;;;;4981462;28;20231;-56
2022/06/24 05:50:31;;;;;;;8.33;5.00;;;;;;;;;;4979890;28;20460;-55
2022/06/24 05:55:42;;;;;;;5.87;4.27;;;;;;;;;;4978861;28;20241;-54
2022/06/24 05:58:08;;;;;;;5.33;4.50;;;;;;;;;;4984540;28;20181;-54
2022/06/24 06:00:34;;;;;;;8.07;4.60;;;;;;;;;;4988247;28;20656;-54
2022/06/24 06:03:00;;;;;;;6.57;4.57;;;;;;;;;;4983765;28;20792;-55
2022/06/24 06:05:27;;;;;;;10.43;4.80;;;;;;;;;;4984623;28;20777;-56
2022/06/24 06:07:53;;;;;;;8.67;5.27;;;;;;;;;;4986746;28;20357;-57
2022/06/24 06:10:19;;;;;;;5.87;5.17;;;;;;;;;;4983208;28;20235;-55
2022/06/24 06:12:45;;;;;;;9.23;4.80;;;;;;;;;;4984092;28;20201;-55
2022/06/24 06:15:11;;;;;;;7.83;4.80;;;;;;;;;;4984891;28;20186;-55
2022/06/24 06:17:37;;;;;;;8.80;4.73;;;;;;;;;;4985532;28;20190;-56
2022/06/24 06:20:03;;;;;;;7.90;4.60;;;;;;;;;;4979124;28;20201;-56
2022/06/24 06:22:29;;;;;;;10.17;5.43;;;;;;;;;;4983971;28;20721;-55
2022/06/24 06:24:55;;;;;;;11.30;5.37;;;;;;;;;;4992840;28;20316;-56
2022/06/24 06:27:22;;;;;;;9.63;5.77;;;;;;;;;;4978474;28;20214;-54
2022/06/24 06:29:48;;;;;;;8.20;5.30;;;;;;;;;;4992421;28;20210;-55
2022/06/24 06:32:14;;;;;;;7.30;5.77;;;;;;;;;;4984161;28;20580;-55
2022/06/24 06:34:40;;;;;;;6.03;5.50;;;;;;;;;;4980151;28;20178;-56
2022/06/24 06:37:06;;;;;;;6.00;5.30;;;;;;;;;;4978669;28;20193;-56
2022/06/24 06:39:32;;;;;;;7.93;5.43;;;;;;;;;;4980859;28;20197;-55
2022/06/24 06:41:58;;;;;;;7.33;5.50;;;;;;;;;;4986384;28;20201;-55
2022/06/24 06:44:23;;;;;;;8.67;5.97;;;;;;;;;;4996281;28;20728;-56
2022/06/24 06:46:50;;;;;;;5.90;5.30;;;;;;;;;;4978344;28;20337;-56
2022/06/24 06:49:16;;;;;;;8.33;5.67;;;;;;;;;;4978823;28;20216;-56
2022/06/24 06:51:42;;;;;;;10.73;6.50;;;;;;;;;;4980980;28;21605;-58
2022/06/24 06:54:08;;;;;;;13.10;6.47;;;;;;;;;;4979554;28;20264;-59
2022/06/24 06:56:33;;;;;;;7.40;5.17;;;;;;;;;;4981427;28;20190;-58
2022/06/24 06:58:59;;;;;;;8.23;5.43;;;;;;;;;;4976427;28;20685;-59
2022/06/24 07:01:26;;;;;;;7.63;5.13;;;;;;;;;;4976312;28;21539;-59
2022/06/24 07:03:52;;;;;;;9.30;4.83;;;;;;;;;;4985527;28;20194;-59
2022/06/24 07:06:18;;;;;;;7.73;5.80;;;;;;;;;;4985433;28;20219;-59
2022/06/24 07:08:44;;;;;;;5.83;5.03;;;;;;;;;;4989071;28;20222;-58
2022/06/24 07:11:10;;;;;;;6.67;4.87;;;;;;;;;;4978810;28;20215;-57
2022/06/24 07:13:36;;;;;;;8.20;4.87;;;;;;;;;;4985896;28;20221;-58
2022/06/24 07:16:01;;;;;;;8.70;4.57;;;;;;;;;;4985025;28;20182;-57
2022/06/24 07:18:27;;;;;;;6.03;4.63;;;;;;;;;;4988210;28;20197;-57
2022/06/24 07:20:53;;;;;;;6.97;4.83;;;;;;;;;;4986105;28;20193;-58
2022/06/24 07:23:19;;;;;;;6.70;4.20;;;;;;;;;;4989136;28;20240;-58
2022/06/24 07:25:45;;;;;;;4.53;4.13;;;;;;;;;;4986212;28;20206;-58
2022/06/24 07:28:11;;;;;;;5.87;4.20;;;;;;;;;;4985516;28;20790;-58
2022/06/24 07:30:37;;;;;;;4.43;4.10;;;;;;;;;;4986240;28;20271;-59
2022/06/24 07:33:03;;;;;;;4.83;4.30;;;;;;;;;;4991281;28;20186;-57
2022/06/24 07:35:29;;;;;;;5.00;4.23;;;;;;;;;;4989992;28;20182;-58
2022/06/24 07:37:55;;;;;;;4.90;4.50;;;;;;;;;;4995476;28;20561;-57
2022/06/24 07:40:21;;;;;;;6.33;3.93;;;;;;;;;;4987549;28;20190;-58
2022/06/24 07:42:47;;;;;;;4.50;3.73;;;;;;;;;;4986272;28;20190;-57
2022/06/24 07:45:13;;;;;;;5.37;4.07;;;;;;;;;;4982661;28;20248;-56
2022/06/24 07:47:40;;;;;;;4.60;4.20;;;;;;;;;;4987107;28;20287;-56
2022/06/24 07:50:06;;;;;;;5.67;4.27;;;;;;;;;;4995539;28;20213;-56
2022/06/24 07:52:32;;;;;;;4.30;3.90;;;;;;;;;;4985414;28;20193;-56
2022/06/24 07:57:43;;;;;;;5.93;4.00;;;;;;;;;;4988749;28;20323;-56
2022/06/24 08:00:09;;;;;;;5.37;4.33;;;;;;;;;;4989648;28;20245;-55
2022/06/24 08:02:35;;;;;;;5.30;4.20;;;;;;;;;;4986269;28;20198;-55
2022/06/24 08:05:01;;;;;;;4.50;4.10;;;;;;;;;;4974421;28;20604;-55
2022/06/24 08:07:27;;;;;;;5.53;4.53;;;;;;;;;;4981179;28;20225;-54
2022/06/24 08:09:53;;;;;;;5.60;4.03;;;;;;;;;;4988956;28;20189;-54
2022/06/24 08:12:19;;;;;;;5.27;4.40;;;;;;;;;;4992678;28;20186;-54
2022/06/24 08:14:45;;;;;;;4.93;4.27;;;;;;;;;;4986749;28;20193;-54
2022/06/24 08:17:11;;;;;;;7.07;5.27;;;;;;;;;;4982499;28;20225;-54
2022/06/24 08:19:37;;;;;;;5.70;5.10;;;;;;;;;;4980616;28;20202;-54
2022/06/24 08:22:03;;;;;;;5.50;4.50;;;;;;;;;;4984389;28;20198;-55
2022/06/24 08:24:29;;;;;;;5.83;5.00;;;;;;;;;;4986234;28;20199;-53
2022/06/24 08:26:54;;;;;;;5.40;4.90;;;;;;;;;;4978713;28;20220;-54
2022/06/24 08:29:20;;;;;;;5.47;4.93;;;;;;;;;;4997929;28;20742;-55
2022/06/24 08:31:46;;;;;;;5.63;5.13;;;;;;;;;;4988778;28;20662;-55
2022/06/24 08:34:12;;;;;;;5.40;4.90;;;;;;;;;;4988154;28;21232;-55
2022/06/24 08:36:38;;;;;;;4.90;4.50;;;;;;;;;;4982682;28;20600;-53
2022/06/24 08:39:06;;;;;;;5.50;5.10;;;;;;;;;;4987950;28;20190;-53
2022/06/24 08:41:32;;;;;;;5.87;4.70;;;;;;;;;;4986151;28;20186;-54
2022/06/24 08:43:58;;;;;;;5.57;4.57;;;;;;;;;;4992504;28;20237;-55
2022/06/24 08:46:25;;;;;;;4.77;4.30;;;;;;;;;;4968436;28;20234;-55
2022/06/24 08:48:51;;;;;;;5.93;4.47;;;;;;;;;;4977959;28;20726;-53
2022/06/24 08:51:17;;;;;;;4.63;4.10;;;;;;;;;;4973638;28;20189;-52
2022/06/24 08:53:44;;;;;;;7.47;5.03;;;;;;;;;;4981409;28;20659;-52
2022/06/24 08:56:10;;;;;;;7.73;4.47;;;;;;;;;;4974425;28;20538;-52
2022/06/24 08:58:36;;;;;;;4.37;4.07;;;;;;;;;;4975255;28;20194;-51
2022/06/24 09:01:02;;;;;;;4.57;4.17;;;;;;;;;;4974708;28;20612;-51
2022/06/24 09:03:28;;;;;;;6.13;4.18;;;;;;;;;;4978272;28;20268;-52
2022/06/24 09:05:54;;;;;;;6.80;4.37;;;;;;;;;;4981768;28;20268;-52
2022/06/24 09:08:20;;;;;;;6.32;4.25;;;;;;;;;;4976918;28;20563;-52
2022/06/24 09:13:31;;;;;;;4.90;4.20;;;;;;;;;;4983571;28;20710;-52
2022/06/24 09:15:57;;;;;;;4.28;3.88;;;;;;;;;;4983567;28;20611;-52
2022/06/24 09:18:23;;;;;;;;;;;;;;;;;;4974685;28;20064;-53
2022/06/24 09:20:49;;;;;;;;;;;;;;;;;;4984053;28;19913;-51
2022/06/24 09:23:15;;;;;;;;;;;;;;;;;;4983845;28;19968;-52
2022/06/24 09:25:41;;;;;;;;;;;;;;;;;;4986597;28;19924;-51
2022/06/24 09:28:06;;;;;;;;;;;;;;;;;;4985895;28;20382;-51
2022/06/24 09:30:32;;;;;;;;;;;;;;;;;;4979647;28;19921;-50
2022/06/24 09:32:58;;;;;;;;;;;;;;;;;;4987347;28;19917;-52
2022/06/24 09:35:24;;;;;;;;;;;;;;;;;;4985492;28;20155;-53
2022/06/24 09:37:50;;;;;;;;;;;;;;;;;;4982203;28;19917;-52
2022/06/24 09:40:16;;;;;;;;;;;;;;;;;;4985094;28;19964;-52
2022/06/24 09:42:42;;;;;;;;;;;;;;;;;;4982435;28;20379;-52
2022/06/24 09:45:08;;;;;;;;;;;;;;;;;;4988282;28;19925;-52
2022/06/24 09:47:33;;;;;;;;;;;;;;;;;;4984655;28;20902;-52
2022/06/24 09:49:59;;;;;;;;;;;;;;;;;;4987460;28;19917;-54
2022/06/24 09:52:25;;;;;;;;;;;;;;;;;;4976437;28;20503;-53
2022/06/24 09:54:51;;;;;;;;;;;;;;;;;;4983120;28;20001;-53
2022/06/24 09:57:17;;;;;;;;;;;;;;;;;;4989330;28;19917;-53
2022/06/24 10:02:28;;;;;;;;;;;;;;;;;;4979139;28;19936;-52
2022/06/24 10:04:54;;;;;;;;;;;;;;;;;;4977440;28;19949;-52
2022/06/24 10:07:20;;;;;;;;;;;;;;;;;;4977536;28;20109;-53
2022/06/24 10:09:45;;;;;;;;;;;;;;;;;;4977620;28;19914;-52
2022/06/24 10:12:11;;;;;;;;;;;;;;;;;;4989886;28;19940;-53
2022/06/24 10:14:37;;;;;;;;;;;;;;;;;;4985795;28;19913;-57
2022/06/24 10:17:03;;;;;;;;;;;;;;;;;;4987133;28;19919;-53
2022/06/24 10:19:29;;;;;;;;;;;;;;;;;;4973296;28;19929;-52
2022/06/24 10:21:55;;;;;;;;;;;;;;;;;;4978947;28;19914;-52
2022/06/24 10:24:21;;;;;;;;;;;;;;;;;;4985592;28;19924;-54
2022/06/24 10:26:47;;;;;;;;;;;;;;;;;;4990482;28;21883;-54
2022/06/24 10:29:13;;;;;;;;;;;;;;;;;;4982786;28;20039;-55
2022/06/24 10:31:39;;;;;;;;;;;;;;;;;;4973587;28;20015;-52
2022/06/24 10:34:05;;;;;;;;;;;;;;;;;;4977742;28;20758;-52
2022/06/24 10:36:31;;;;;;;;;;;;;;;;;;4990262;28;19917;-52
2022/06/24 10:38:57;;;;;;;;;;;;;;;;;;4980013;28;19968;-52
2022/06/24 10:41:23;;;;;;;;;;;;;;;;;;4977315;28;20355;-51
2022/06/24 10:43:49;;;;;;;;;;;;;;;;;;4979603;28;20378;-54
2022/06/24 10:46:16;;;;;;;;;;;;;;;;;;4990221;28;19922;-53
2022/06/24 10:48:42;;;;;;;;;;;;;;;;;;4983007;28;19936;-53
2022/06/24 10:51:08;;;;;;;;;;;;;;;;;;4984609;28;19957;-53
2022/06/24 10:53:34;;;;;;;;;;;;;;;;;;4985046;28;19925;-52
2022/06/24 10:56:00;;;;;;;;;;;;;;;;;;4967310;28;20260;-52
2022/06/24 10:58:28;;;;;;;;;;;;;;;;;;4982831;28;19917;-53
2022/06/24 11:00:54;;;;;;;;;;;;;;;;;;4994136;28;19992;-52
2022/06/24 11:03:20;;;;;;;;;;;;;;;;;;4987038;28;20611;-53
2022/06/24 11:05:46;;;;;;;;;;;;;;;;;;4977296;28;19921;-52
2022/06/24 11:08:12;;;;;;;;;;;;;;;;;;4985390;28;20697;-52
2022/06/24 11:10:38;;;;;;;;;;;;;;;;;;4986813;28;19913;-52
2022/06/24 11:13:04;;;;;;;;;;;;;;;;;;4986819;28;19934;-53
2022/06/24 11:15:30;;;;;;;;;;;;;;;;;;4984675;28;19917;-52
2022/06/24 11:17:56;;;;;;;;;;;;;;;;;;4982970;28;19918;-53
2022/06/24 11:20:22;;;;;;;;;;;;;;;;;;4989947;28;19910;-51
2022/06/24 11:22:48;;;;;;;;;;;;;;;;;;4986072;28;20393;-52
2022/06/24 11:25:13;;;;;;;;;;;;;;;;;;4985104;28;19917;-51
2022/06/24 11:27:39;;;;;;;;;;;;;;;;;;4981734;28;20529;-52
2022/06/24 11:30:05;;;;;;;;;;;;;;;;;;4978120;28;19913;-53
2022/06/24 11:32:31;;;;;;;;;;;;;;;;;;4982423;28;20415;-52
2022/06/24 11:34:57;;;;;;;;;;;;;;;;;;4984108;28;19917;-52
2022/06/24 11:37:23;;;;;;;;;;;;;;;;;;4989360;28;19928;-52
2022/06/24 11:39:49;;;;;;;;;;;;;;;;;;4979212;28;20435;-52
2022/06/24 11:42:15;;;;;;;;;;;;;;;;;;4978773;28;19925;-54
2022/06/24 11:44:41;;;;;;;;;;;;;;;;;;4979575;28;20352;-51
2022/06/24 11:47:07;;;;;;;;;;;;;;;;;;4986611;28;19932;-54
2022/06/24 11:49:33;;;;;;;;;;;;;;;;;;4980430;28;19917;-56
2022/06/24 11:51:59;;;;;;;;;;;;;;;;;;4978070;28;20428;-57
2022/06/24 11:54:25;;;;;;;;;;;;;;;;;;4985937;28;19936;-56
2022/06/24 11:56:51;;;;;;;;;;;;;;;;;;4979656;28;19920;-57
2022/06/24 11:59:16;;;;;;;;;;;;;;;;;;4982288;28;19918;-57
2022/06/24 12:01:42;;;;;;;;;;;;;;;;;;4986848;28;19913;-56
2022/06/24 12:04:08;;;;;;;;;;;;;;;;;;4994250;28;19968;-56
2022/06/24 12:06:34;;;;;;;;;;;;;;;;;;4975991;28;19909;-55
2022/06/24 12:09:00;;;;;;;;;;;;;;;;;;4984543;28;19917;-55
2022/06/24 12:11:26;;;;;;;;;;;;;;;;;;4987559;28;20043;-56
2022/06/24 12:13:52;;;;;;;;;;;;;;;;;;4986958;28;19954;-57
2022/06/24 12:16:18;;;;;;;;;;;;;;;;;;4985056;28;19917;-58
2022/06/24 12:18:44;;;;;;;;;;;;;;;;;;4988685;28;20348;-57
2022/06/24 12:21:10;;;;;;;;;;;;;;;;;;4987517;28;19924;-56
2022/06/24 12:23:36;;;;;;;;;;;;;;;;;;4988759;28;19917;-56
2022/06/24 12:26:02;;;;;;;;;;;;;;;;;;4979356;28;19918;-57
2022/06/24 12:28:28;;;;;;;;;;;;;;;;;;4987324;28;20259;-57
2022/06/24 12:30:54;;;;;;;;;;;;;;;;;;4985029;28;19910;-57
2022/06/24 12:33:20;;;;;;;;;;;;;;;;;;4981485;28;19920;-57
2022/06/24 12:35:49;;;;;;;;;;;;;;;;;;4990893;28;19917;-57
2022/06/24 12:38:14;;;;;;;;;;;;;;;;;;4992383;28;19957;-57
2022/06/24 12:40:40;;;;;;;;;;;;;;;;;;4987284;28;20104;-56
2022/06/24 12:43:06;;;;;;;;;;;;;;;;;;4983801;28;19909;-56
2022/06/24 12:45:32;;;;;;;;;;;;;;;;;;4980251;28;19925;-58
2022/06/24 12:50:42;;;;;;;;;;;;;;;;;;4979104;28;20392;-56
2022/06/24 12:53:09;;;;;;;;;;;;;;;;;;4988662;28;19921;-56
2022/06/24 12:55:35;;;;;;;;;;;;;;;;;;4984676;28;19920;-55
2022/06/24 12:58:01;;;;;;;;;;;;;;;;;;4967714;28;20849;-56
2022/06/24 13:00:27;;;;;;;;;;;;;;;;;;4971530;28;19918;-54
2022/06/24 13:02:53;;;;;;;;;;;;;;;;;;4973903;28;20435;-59
2022/06/24 13:05:19;;;;;;;;;;;;;;;;;;4981227;28;19913;-58
2022/06/24 13:07:45;;;;;;;;;;;;;;;;;;4985066;28;20379;-57
2022/06/24 13:10:11;;;;;;;;;;;;;;;;;;4988100;28;19917;-57
2022/06/24 13:12:38;;;;;;;;;;;;;;;;;;4989299;28;19963;-57
2022/06/24 13:15:04;;;;;;;;;;;;;;;;;;4988994;28;19913;-58
2022/06/24 13:17:30;;;;;;;;;;;;;;;;;;4984365;28;19920;-57
2022/06/24 13:19:56;;;;;;;;;;;;;;;;;;4979614;28;19913;-61
2022/06/24 13:22:22;;;;;;;;;;;;;;;;;;4984543;28;20401;-60
2022/06/24 13:24:48;;;;;;;;;;;;;;;;;;4987403;28;19919;-59
2022/06/24 13:27:13;;;;;;;;;;;;;;;;;;4988467;28;19921;-59
2022/06/24 13:29:39;;;;;;;;;;;;;;;;;;4982885;28;20346;-56
2022/06/24 13:32:05;;;;;;;;;;;;;;;;;;4975844;28;19917;-57
2022/06/24 13:34:31;;;;;;;;;;;;;;;;;;4976500;28;19918;-58
2022/06/24 13:36:57;;;;;;;;;;;;;;;;;;4984104;28;20420;-58
2022/06/24 13:39:23;;;;;;;;;;;;;;;;;;4982066;28;19913;-57
2022/06/24 13:41:49;;;;;;;;;;;;;;;;;;4980390;28;20393;-56
2022/06/24 13:44:15;;;;;;;;;;;;;;;;;;4979865;28;20278;-58
2022/06/24 13:46:41;;;;;;;;;;;;;;;;;;4985486;28;20000;-57
2022/06/24 13:49:08;;;;;;;;;;;;;;;;;;4984826;28;20391;-57
2022/06/24 13:51:34;;;;;;;;;;;;;;;;;;4990112;28;19913;-56
2022/06/24 13:54:00;;;;;;;;;;;;;;;;;;4987084;28;20552;-57
2022/06/24 13:56:25;;;;;;;;;;;;;;;;;;4991702;28;20306;-57
2022/06/24 13:58:51;;;;;;;;;;;;;;;;;;4992997;28;19924;-57
2022/06/24 14:01:17;;;;;;;;;;;;;;;;;;4994092;28;20371;-57
2022/06/24 14:03:43;;;;;;;;;;;;;;;;;;4984754;28;19928;-56
2022/06/24 14:06:09;;;;;;;;;;;;;;;;;;4984002;28;19919;-57
2022/06/24 14:08:35;;;;;;;;;;;;;;;;;;4990624;28;19924;-56
2022/06/24 14:11:01;;;;;;;;;;;;;;;;;;4992434;28;20384;-57
2022/06/24 14:13:27;;;;;;;;;;;;;;;;;;4984592;28;20020;-57
2022/06/24 14:15:53;;;;;;;;;;;;;;;;;;4992340;28;20353;-57
2022/06/24 14:18:19;;;;;;;;;;;;;;;;;;4984793;28;19917;-57
2022/06/24 14:20:45;;;;;;;;;;;;;;;;;;4983441;28;19925;-56
2022/06/24 14:25:55;;;;;;;;;;;;;;;;;;4988228;28;20283;-56
2022/06/24 14:28:21;;;;;;;;;;;;;;;;;;4991051;28;19993;-58
2022/06/24 14:30:47;;;;;;;;;;;;;;;;;;4986907;28;19920;-57
2022/06/24 14:33:13;;;;;;;;;;;;;;;;;;4987530;28;19953;-57
2022/06/24 14:35:39;;;;;;;;;;;;;;;;;;4992483;28;19914;-57
2022/06/24 14:40:49;;;;;;;;;;;;;;;;;;4986562;28;20012;-57
2022/06/24 14:43:15;;;;;;;;;;;;;;;;;;4987416;28;19910;-57
2022/06/24 14:45:41;;;;;;;;;;;;;;;;;;4989834;28;19929;-58
2022/06/24 14:48:07;;;;;;;;;;;;;;;;;;4989404;28;20420;-58
2022/06/24 14:50:32;;;;;;;;;;;;;;;;;;4989036;28;19917;-57
2022/06/24 14:52:58;;;;;;;;;;;;;;;;;;4990043;28;19956;-57
2022/06/24 14:55:24;;;;;;;;;;;;;;;;;;4984881;28;19967;-58
2022/06/24 14:57:50;;;;;;;;;;;;;;;;;;4982122;28;19948;-59
2022/06/24 15:00:16;;;;;;;;;;;;;;;;;;4974864;28;20446;-59
2022/06/24 15:02:42;;;;;;;;;;;;;;;;;;4983233;28;19916;-57
2022/06/24 15:05:10;;;;;;;;;;;;;;;;;;4985490;28;19917;-58
2022/06/24 15:07:36;;;;;;;;;;;;;;;;;;4982803;28;19968;-58
2022/06/24 15:10:03;;;;;;;;;;;;;;;;;;4987994;28;20051;-59
2022/06/24 15:12:29;;;;;;;;;;;;;;;;;;4987062;28;19974;-57
2022/06/24 15:14:55;;;;;;;;;;;;;;;;;;4972797;28;19917;-56
2022/06/24 15:17:21;;;;;;;;;;;;;;;;;;4986722;28;20622;-57
2022/06/24 15:19:47;;;;;;;;;;;;;;;;;;4989189;28;19976;-52
2022/06/24 15:22:13;;;;;;;;;;;;;;;;;;4980439;28;20390;-59
2022/06/24 15:27:15;;;;;;;6.38;2.88;;;;;;;;;;4972395;27;2202787;-55
2022/06/24 15:29:41;;;;;;;4.28;3.10;;;;;;;;;;5034364;28;20191;-53
2022/06/24 15:32:08;;;;;;;4.93;3.38;;;;;;;;;;5029329;28;20190;-51
2022/06/24 15:34:34;;;;;;;7.47;3.65;;;;;;;;;;5031334;28;20589;-55
2022/06/24 15:37:01;;;;;;;6.47;3.50;;;;;;;;;;5031612;28;20181;-57
2022/06/24 15:39:29;;;;;;;8.05;3.75;;;;;;;;;;5029561;28;20258;-57
2022/06/24 15:41:55;;;;;;;7.13;3.75;;;;;;;;;;5039949;28;20187;-54
2022/06/24 15:44:21;;;;;;;13.38;4.32;;;;;;;;;;5029064;28;20190;-59
2022/06/24 15:46:47;;;;;;;5.45;3.80;;;;;;;;;;5041131;28;20235;-55
2022/06/24 15:49:13;;;;;;;7.20;4.57;;;;;;;;;;5039020;28;20266;-57